aviador You're here:

EPSC Decoded Metar

SZCZECIN in POLAND
Report Time2018-02-17 23:30:00
UTC Time2018-02-17 23:37:52
Flight Rules vfr VFR
Wind290° at 02 kt
W.Decomp.*RWY 31: 1.8 kt HW 0.8 kt LCW
W.Rank290° ranks 13
Current wind is below 290° avg. (9.7)
Visibility9999 m
Phenomena:N/A
Clouds:Few 030 Hf
Overcast 035 Hf
Expected CloudBase > 800 ft AGL from Temp-Dew spread
Ceiling3,500 ft
Temp00°C (ISA -15)
Dew Point-2°C (87% RH)
AAT-3.0°C
QNH1026 hPa
Density Alt-2,192 ft
Elevation10 ft
Report Wrong Elevation
Raw Report
METAR EPSC 172330Z 29002KT 9999 FEW030 OVC035 M00/M02 Q1026 =

Extra information for EPSC:More info

Metar Taf Metar & Taf Last 4 Metars F.Rules Stats Wind Profile Meteogram Temp Stats Airport Information Weather charts Add Link Nearby VenuesMetar ALERT Operation Metar Decoded Social comments